Accueil
METAR-TAF:

METAR-TAF

Aéroports :

Lubbock, Texas, États-Unis

latitude: 33-40-03N, longitude: 101-49-17W, altitude: 1000 m

Observation

Le bulletin a été fait il y a 1 heure et 4 minutes, à 00:53 UTC
Vent 6 kt de est/sud-est
Température 1°C
Humidité 80%
Pression 1025 hPa
Visibilité: 16.1 km
Nuages épars à une hauteur de 25000 ft

METAR: KLBB 110053Z COR 12006KT 10SM SCT250 01/M02 A3027 RMK A02 SLP269 T00111017

Heure: 19:57 (01:57 UTC)

Prévision

Le bulletin a été fait il y a 2 heures et 37 minutes, à 23:20 UTC
Prévision valable du 11 à 00 UTC au 11 à 24 UTC
Vent 8 kt de sud/sud-ouest
Visibilité: 10 km
Quelques nuages à une hauteur de 25000 ft
A partir de 11 à 2100 UTC
Vent 11 kt de sud-ouest
Visibilité: 10 km
Quelques nuages à une hauteur de 25000 ft

TAF: KLBB 102320Z 1100/1124 21008KT P6SM FEW250 FM112100 23011KT P6SM FEW250

Observations et prévisions météorologiques de plus de 4000 aéroports (messages METAR et TAF).

Les stations disponibles sont représentées par des disques jaunes et rouges sur la carte.

Passer la souris dessus pour voir le nom de la station.

Cliquer dessus pour voir les observations et prévisions météorologiques.

Pour changer de carte: cliquez sur les boutons verts avec une croix noire pour zoomer, sur le bouton vert avec un tiret pour effectuer un zoom arrière, ou sur les flèches vertes pour les cartes adjacentes.


METAR-TAF: